Sycamore, Georgia
Current Conditions -  °F | °C
As of 11:35 AM on Tuesday 27 Jan 2015 (Local Time) from KTMA Reporting Station
Clear Clear  
Wind Chill: 52°   Ceiling: Unl
Heat Index: 52°   Visibility: 10mi
Dew Point: 34°   Wind: 10mph
Humidity: 50%   Direction: 300°WNW
Pressure: 29.97"   Gusts: NA
Location:  31.67°N, 83.64°W
Report Text: KTMA 271635Z AUTO 30009KT 10SM CLR 11/01 A2997 RMK AO2
Loading
Personal Weather Stations






























Interactive Weather Map New forecast layout! Learn more

10-Day Weather Forecast

Advertisements
Track Severe Weather on mobile